Aérodrome :
LOGIN :

S'inscrire | Disclaimer

   EN    FR    IT 

 










Légende :    VFR   VFR Marginal   IFR   IFR Intensif   IFR Très Intensif
Visi : 
Plafond : 
>= 8 km
>= 3000ft
5 à 8 km
1000 à 3000 ft
1500m à 5 km
500 à 1000 ft
800 à 1500m
200 à 500 ft
< 800m
< 200 ft
Symboles :   Orages  Brouillard  Fortes neiges  Fortes précipitations  Vent > 20 kt
SIGMETs :   Divers  Orages  Givrage  Turbulence  Onde Orograph.  Cendres Volcan.







- Altitude de l'aérodrome : 194 ft
- Code IATA : ANE
- Voir les cartes d'approche


LFJR - Angers Marcé

DERNIER METAR :
  • 192300Z AUTO 23007KT 210V280 9999 BKN020 OVC025 17/15 Q1013

METARs EXPIRÉS :
  • 192230Z AUTO 26008KT 9999 FEW018 OVC028 18/14 Q1013
  • 192200Z AUTO 24010KT 9999 FEW021 BKN028 OVC056 18/14 Q1013
  • 192130Z AUTO 23009KT 9999 SCT034 BKN047 OVC056 18/14 Q1013
  • 192100Z AUTO 24004KT 9999 BKN023 BKN032 OVC054 18/15 Q1013
  • 192030Z AUTO 23006KT 9999 BKN028 OVC052 18/14 Q1012

Prévision TAF périmée.
Pas de NOTAMs connus pour ce terrain.



MET'MAP, la Météo Aéronautique d'un coup d'oeil ! - Copyright ORBIFLY Décembre 2007 - Disclaimer

ORBIFLY MET'MAP TEAM :

Programmation & Développement : Alexandra Zaïnal
Conception & Développement : Baudouin d'Aumeries
Co-Programmation & Développement : Marc-Olivier Méhu
Soutien technique & logistique : Manuel Goepfert

Contact : metmap@orbifly.com




SOURCES & CREDITS :

   NOAA